ボードー の空港の天気 - METARとTAF

Bodo Vi ( ENBO / BOO ) - ノルウェー ヌールラン県ボードー
飛行場実況気象(Metar)
観測時間03/28 23:20 CEST (03/28 21:20 UTC)
風向・風速西北西 6m/s
視程10km以上
天気現象弱いしゅう雪
全天の4割程度の雲 雲底高度 370m
全天の8割程度の雲 雲底高度 550m
気温-3℃
湿度93%
気圧1015hPa
METARENBO 282120Z 30011KT 9999 -SHSN SCT012CB BKN018 M03/M04 Q1015 RESHSN TEMPO 1000 SHSNGS VV006
過去の天気等 Google飛行場航空写真 Wunderground天気予報

過去48時間のMETAR

飛行場予報(TAF)
発表時間: -
28日20時 CEST ~ 29日20時 CEST に一時的に
全天の4割程度の積乱雲 雲底高度 370m
28日20時 CEST ~ 29日20時 CEST に一時的に
風向・風速北北西 8m/s 瞬間風速 13m/s
視程800m
天気現象しゅう雪あられ
全天を覆う雲 鉛直視程 150m
TAF ENBO 2818/2918 30008KT 9999 -SHSN FEW012TCU BKN030
TEMPO 2818/2918 SCT012CB
TEMPO 2818/2918 33015G25KT 0800 SHSNGS VV005